TimeMST,TemperatureF,Dew PointF,Humidity,Sea Level PressureIn,VisibilityMPH,Wind Direction,Wind SpeedMPH,Gust SpeedMPH,PrecipitationIn,Events,Conditions,WindDirDegrees,DateUTC
12:56 AM,32.0,15.1,50,30.12,10.0,South,9.2,-,N/A,,Clear,170,2012-12-29 07:56:00
1:56 AM,32.0,16.0,52,30.12,10.0,SE,5.8,-,N/A,,Clear,140,2012-12-29 08:56:00
2:56 AM,28.9,16.0,58,30.13,10.0,ESE,6.9,-,N/A,,Clear,120,2012-12-29 09:56:00
3:56 AM,32.0,15.1,50,30.11,10.0,Calm,Calm,-,N/A,,Clear,0,2012-12-29 10:56:00
4:56 AM,30.9,16.0,54,30.10,10.0,Calm,Calm,-,N/A,,Clear,0,2012-12-29 11:56:00
5:56 AM,30.9,16.0,54,30.12,10.0,Calm,Calm,-,N/A,,Clear,0,2012-12-29 12:56:00
6:56 AM,32.0,16.0,52,30.14,10.0,Calm,Calm,-,N/A,,Clear,0,2012-12-29 13:56:00
8:56 AM,37.9,18.0,45,30.15,10.0,East,4.6,-,N/A,,Clear,80,2012-12-29 15:56:00
9:56 AM,43.0,17.1,35,30.15,10.0,East,8.1,-,N/A,,Clear,100,2012-12-29 16:56:00
10:56 AM,45.0,16.0,31,30.12,10.0,East,12.7,17.3,N/A,,Clear,100,2012-12-29 17:56:00
11:56 AM,50.0,17.1,27,30.07,10.0,ESE,13.8,18.4,N/A,,Clear,120,2012-12-29 18:56:00
12:56 PM,52.0,18.0,26,30.02,10.0,ESE,12.7,-,N/A,,Clear,120,2012-12-29 19:56:00
1:56 PM,54.0,18.0,24,29.99,10.0,SE,9.2,-,N/A,,Clear,130,2012-12-29 20:56:00
2:56 PM,55.9,18.0,23,29.98,10.0,East,11.5,-,N/A,,Clear,100,2012-12-29 21:56:00
3:56 PM,55.9,18.0,23,29.97,10.0,ENE,8.1,-,N/A,,Clear,70,2012-12-29 22:56:00
4:56 PM,55.0,18.0,23,29.97,10.0,SSE,9.2,-,N/A,,Clear,150,2012-12-29 23:56:00
5:56 PM,51.1,18.0,27,29.98,10.0,South,4.6,-,N/A,,Clear,190,2012-12-30 00:56:00
6:56 PM,48.9,18.0,29,29.99,10.0,South,5.8,-,N/A,,Clear,190,2012-12-30 01:56:00
7:56 PM,46.0,18.0,33,29.99,10.0,Calm,Calm,-,N/A,,Clear,0,2012-12-30 02:56:00
8:56 PM,43.0,19.9,40,29.99,10.0,West,4.6,-,N/A,,Clear,260,2012-12-30 03:56:00
9:56 PM,45.0,18.0,34,29.97,10.0,Calm,Calm,-,N/A,,Mostly Cloudy,0,2012-12-30 04:56:00
10:56 PM,43.0,19.0,38,29.97,10.0,West,5.8,-,N/A,,Clear,280,2012-12-30 05:56:00
11:56 PM,42.1,19.0,40,29.95,10.0,Calm,Calm,-,N/A,,Clear,0,2012-12-30 06:56:00